Time;durP1;ratioP1;P1;durP2;ratioP2;P2;SDS_P1;SDS_P2;PMS_P1;PMS_P2;Temp;Humidity;BMP_temperature;BMP_pressure;BME280_temperature;BME280_humidity;BME280_pressure;Samples;Min_cycle;Max_cycle;Signal;HPM_P1;HPM_P2
2022/09/24 00:01:50;;;;;;;27.90;14.30;;;;;;;7.49;71.71;99090.88;106106;1274;96597;-64
2022/09/24 00:04:26;;;;;;;26.00;14.40;;;;;;;7.48;71.74;99090.78;106102;1274;97896;-64
2022/09/24 00:06:54;;;;;;;27.70;14.40;;;;;;;7.45;71.91;99088.11;106101;1274;111981;-63
2022/09/24 00:09:24;;;;;;;26.50;13.50;;;;;;;7.44;72.05;99085.88;106215;1274;97901;-65
2022/09/24 00:11:53;;;;;;;27.30;14.10;;;;;;;7.44;71.80;99083.92;106108;1274;108594;-63
2022/09/24 00:14:24;;;;;;;27.40;14.10;;;;;;;7.42;71.96;99084.57;106048;1274;95182;-64
2022/09/24 00:16:51;;;;;;;27.60;15.10;;;;;;;7.44;72.08;99087.29;106119;1274;96415;-64
2022/09/24 00:19:19;;;;;;;27.50;15.30;;;;;;;7.46;72.18;99084.51;106207;1273;111973;-65
2022/09/24 00:21:47;;;;;;;27.00;15.00;;;;;;;7.48;72.17;99082.48;106144;1274;97886;-65
2022/09/24 00:27:08;;;;;;;26.00;12.70;;;;;;;7.47;72.13;99076.19;105987;1275;96313;-64
2022/09/24 00:29:38;;;;;;;27.10;13.80;;;;;;;7.45;72.13;99073.63;106263;1274;97844;-65
2022/09/24 00:32:12;;;;;;;24.40;12.60;;;;;;;7.46;72.35;99071.82;106245;1274;112278;-66
2022/09/24 00:34:40;;;;;;;29.10;14.40;;;;;;;7.49;72.26;99076.05;106251;1274;98890;-66
2022/09/24 00:37:08;;;;;;;27.20;13.40;;;;;;;7.51;72.14;99077.01;106198;1274;108866;-65
2022/09/24 00:39:38;;;;;;;26.80;15.30;;;;;;;7.49;72.31;99073.76;106184;1274;95200;-65
2022/09/24 00:42:12;;;;;;;27.80;14.20;;;;;;;7.45;72.22;99074.15;106233;1273;97895;-65
2022/09/24 00:44:39;;;;;;;25.40;13.90;;;;;;;7.41;72.37;99069.78;106217;1274;109195;-67
2022/09/24 00:47:35;;;;;;;26.20;14.50;;;;;;;7.41;72.41;99067.86;106243;1274;95475;-65
2022/09/24 00:50:26;;;;;;;25.50;13.50;;;;;;;7.41;72.43;99071.20;106141;1274;108361;-65
2022/09/24 00:53:13;;;;;;;24.60;12.30;;;;;;;7.42;72.50;99070.46;106135;1274;95333;-64
2022/09/24 00:55:51;;;;;;;26.00;14.50;;;;;;;7.43;72.68;99069.87;106227;1274;97950;-66
2022/09/24 00:58:25;;;;;;;27.20;13.80;;;;;;;7.39;72.18;99070.96;106144;1274;111284;-64
2022/09/24 01:01:00;;;;;;;27.20;14.00;;;;;;;7.36;72.31;99058.98;106096;1274;97884;-65
2022/09/24 01:03:41;;;;;;;25.30;12.90;;;;;;;7.28;71.86;99057.90;106040;1274;107838;-65
2022/09/24 01:06:16;;;;;;;27.30;13.70;;;;;;;7.19;72.12;99055.77;106201;1274;98079;-66
2022/09/24 01:08:48;;;;;;;26.40;13.90;;;;;;;7.17;72.54;99051.62;106204;1274;98212;-65
2022/09/24 01:11:32;;;;;;;25.90;12.40;;;;;;;7.18;72.31;99054.58;106228;1274;112068;-65
2022/09/24 01:14:31;;;;;;;26.40;12.70;;;;;;;7.20;72.48;99055.67;106244;1274;96592;-65
2022/09/24 01:17:17;;;;;;;24.90;12.70;;;;;;;7.23;72.63;99057.62;106195;1274;107185;-64
2022/09/24 01:20:32;;;;;;;25.10;13.10;;;;;;;7.20;72.56;99053.20;106112;1273;96254;-65
2022/09/24 01:23:39;;;;;;;25.70;13.20;;;;;;;7.14;72.35;99053.38;105864;1281;99010;-64
2022/09/24 01:26:58;;;;;;;26.30;13.10;;;;;;;7.11;72.49;99050.59;105676;1282;110163;-64
2022/09/24 01:29:54;;;;;;;24.40;12.80;;;;;;;7.13;72.58;99055.41;106176;1274;95267;-66
2022/09/24 01:32:48;;;;;;;25.00;12.10;;;;;;;7.15;72.68;99061.25;106064;1274;107833;-64
2022/09/24 01:35:38;;;;;;;28.20;13.50;;;;;;;7.18;72.60;99057.41;106092;1274;97892;-64
2022/09/24 01:38:11;;;;;;;26.20;12.70;;;;;;;7.20;72.64;99062.73;106217;1274;95280;-66
2022/09/24 01:40:46;;;;;;;25.90;12.50;;;;;;;7.18;72.48;99057.21;106188;1274;112183;-65
2022/09/24 01:43:23;;;;;;;23.80;12.40;;;;;;;7.15;72.53;99054.02;106252;1274;97947;-65
2022/09/24 01:46:01;;;;;;;26.40;12.60;;;;;;;7.12;72.42;99053.15;106225;1274;108407;-62
2022/09/24 01:48:37;;;;;;;24.50;12.80;;;;;;;7.09;72.84;99049.31;106156;1274;97934;-64
2022/09/24 01:51:22;;;;;;;23.20;11.80;;;;;;;7.07;72.66;99054.48;106170;1274;97883;-65
2022/09/24 01:54:12;;;;;;;23.70;12.00;;;;;;;7.08;72.67;99049.89;106113;1274;111988;-65
2022/09/24 01:56:54;;;;;;;23.90;12.20;;;;;;;7.09;72.88;99056.86;106111;1274;99512;-67
2022/09/24 01:59:59;;;;;;;54.00;31.00;;;;;;;7.10;72.65;99057.30;106077;1274;108890;-64
2022/09/24 02:02:51;;;;;;;42.40;21.90;;;;;;;7.11;72.74;99057.25;105965;1274;95304;-65
2022/09/24 02:05:58;;;;;;;26.70;14.80;;;;;;;7.11;72.88;99053.20;106026;1274;97916;-64
2022/09/24 02:08:40;;;;;;;24.60;12.80;;;;;;;7.10;72.82;99047.84;106058;1274;112094;-65
2022/09/24 02:11:15;;;;;;;25.50;13.30;;;;;;;7.09;72.91;99056.35;106234;1274;95196;-66
2022/09/24 02:14:02;;;;;;;27.30;13.30;;;;;;;7.08;72.72;99056.59;106053;1274;108364;-65
2022/09/24 02:16:45;;;;;;;25.30;12.40;;;;;;;7.07;72.71;99057.35;106172;1274;97972;-65
2022/09/24 02:19:26;;;;;;;25.20;12.70;;;;;;;7.04;72.89;99055.02;106151;1274;97864;-66
2022/09/24 02:21:54;;;;;;;25.90;12.70;;;;;;;7.02;72.78;99058.88;106141;1274;111377;-63
2022/09/24 02:24:46;;;;;;;25.10;13.00;;;;;;;7.00;72.91;99058.08;106224;1274;95647;-66
2022/09/24 02:27:19;;;;;;;24.50;12.60;;;;;;;7.00;72.99;99059.88;106032;1274;108362;-65
2022/09/24 02:29:47;;;;;;;24.60;11.60;;;;;;;6.99;72.82;99059.86;106150;1274;97949;-64
2022/09/24 02:32:22;;;;;;;24.90;11.90;;;;;;;7.00;73.03;99058.60;106077;1274;97884;-64
2022/09/24 02:35:00;;;;;;;25.30;11.90;;;;;;;7.01;72.86;99057.51;106144;1274;111386;-65
2022/09/24 02:37:37;;;;;;;23.10;11.90;;;;;;;7.02;72.97;99055.16;106110;1274;97862;-65
2022/09/24 02:40:14;;;;;;;23.50;11.40;;;;;;;7.04;72.95;99055.41;106064;1274;106455;-65
2022/09/24 02:42:44;;;;;;;23.90;11.80;;;;;;;7.06;72.96;99053.69;106098;1274;98080;-64
2022/09/24 02:45:13;;;;;;;25.30;12.90;;;;;;;7.06;72.87;99051.56;106174;1274;98035;-66
2022/09/24 02:47:43;;;;;;;25.00;12.00;;;;;;;7.07;73.08;99052.25;106186;1274;112365;-65
2022/09/24 02:50:12;;;;;;;22.20;11.10;;;;;;;7.08;73.03;99060.11;106138;1274;95733;-65
2022/09/24 02:52:41;;;;;;;25.20;11.60;;;;;;;7.10;73.04;99054.19;106220;1274;108455;-65
2022/09/24 02:55:09;;;;;;;25.70;12.20;;;;;;;7.11;72.94;99049.16;106204;1274;97962;-65
2022/09/24 02:57:38;;;;;;;23.50;11.70;;;;;;;7.05;72.57;99047.95;106145;1274;98589;-65
2022/09/24 03:00:11;;;;;;;23.50;11.80;;;;;;;6.95;72.70;99050.08;106232;1273;111928;-65
2022/09/24 03:02:39;;;;;;;22.90;11.50;;;;;;;6.93;72.96;99050.58;106151;1274;97880;-66
2022/09/24 03:05:09;;;;;;;23.70;12.40;;;;;;;6.88;72.81;99050.65;106166;1274;110500;-67
2022/09/24 03:07:40;;;;;;;26.30;13.10;;;;;;;6.78;72.74;99052.46;106158;1274;97998;-67
2022/09/24 03:10:10;;;;;;;24.60;12.40;;;;;;;6.71;73.01;99056.59;106234;1274;97972;-65
2022/09/24 03:12:42;;;;;;;23.20;11.80;;;;;;;6.66;72.91;99053.99;106163;1274;112092;-65
2022/09/24 03:15:13;;;;;;;25.50;12.60;;;;;;;6.60;72.91;99055.59;106144;1274;95346;-66
2022/09/24 03:17:41;;;;;;;25.60;12.70;;;;;;;6.52;72.76;99052.32;106201;1274;108185;-66
2022/09/24 03:20:11;;;;;;;22.60;11.20;;;;;;;6.45;72.98;99048.67;106220;1274;98008;-63
2022/09/24 03:22:39;;;;;;;25.70;12.50;;;;;;;6.43;73.04;99048.44;106120;1273;95701;-65
2022/09/24 03:25:11;;;;;;;23.70;11.90;;;;;;;6.40;72.95;99053.02;106168;1274;111966;-61
2022/09/24 03:27:38;;;;;;;22.70;12.70;;;;;;;6.34;72.60;99051.75;106251;1274;97752;-63
2022/09/24 03:33:04;;;;;;;22.80;12.60;;;;;;;6.24;73.05;99042.60;106062;1274;97945;-64
2022/09/24 03:35:33;;;;;;;23.50;12.70;;;;;;;6.29;73.31;99041.48;106253;1274;97787;-64
2022/09/24 03:38:01;;;;;;;23.20;12.10;;;;;;;6.31;73.32;99042.93;106035;1277;111736;-65
2022/09/24 03:40:31;;;;;;;26.20;13.20;;;;;;;6.30;73.16;99042.14;106100;1274;98000;-66
2022/09/24 03:43:01;;;;;;;24.70;12.30;;;;;;;6.27;73.16;99044.42;106059;1274;109635;-66
2022/09/24 03:45:31;;;;;;;26.90;13.10;;;;;;;6.24;73.07;99046.13;105945;1277;98025;-63
2022/09/24 03:47:59;;;;;;;25.00;13.50;;;;;;;6.21;72.93;99040.84;106002;1274;97962;-64
2022/09/24 03:50:29;;;;;;;25.50;13.80;;;;;;;6.13;73.02;99037.23;106027;1274;112016;-64
2022/09/24 03:52:57;;;;;;;24.70;12.80;;;;;;;6.10;73.17;99041.81;105934;1274;149755;-65
2022/09/24 03:55:25;;;;;;;24.50;12.00;;;;;;;6.09;73.20;99044.13;105880;1274;108408;-64
2022/09/24 03:57:55;;;;;;;24.00;12.10;;;;;;;6.11;73.31;99054.95;107851;1274;96040;-64
2022/09/24 04:00:23;;;;;;;26.50;12.10;;;;;;;6.14;73.34;99057.59;107918;1274;96322;-64
2022/09/24 04:02:51;;;;;;;22.00;10.40;;;;;;;6.11;73.03;99055.65;107876;1274;110927;-64
2022/09/24 04:05:19;;;;;;;22.20;11.20;;;;;;;6.00;72.99;99051.29;106721;1274;97870;-65
2022/09/24 04:07:48;;;;;;;21.30;10.80;;;;;;;5.95;73.18;99051.17;105995;1274;109101;-66
2022/09/24 04:10:17;;;;;;;24.70;10.60;;;;;;;5.92;73.07;99050.82;106025;1274;97863;-65
2022/09/24 04:12:48;;;;;;;21.60;10.20;;;;;;;5.89;73.26;99052.39;106050;1274;97957;-66
2022/09/24 04:15:20;;;;;;;22.20;10.30;;;;;;;5.88;73.27;99051.36;106128;1274;111029;-66
2022/09/24 04:17:55;;;;;;;21.30;10.40;;;;;;;5.86;73.36;99049.91;106238;1274;96596;-65
2022/09/24 04:20:28;;;;;;;21.80;10.30;;;;;;;5.87;73.55;99047.95;106025;1275;108459;-64
2022/09/24 04:23:00;;;;;;;22.70;11.20;;;;;;;5.90;73.48;99044.74;106157;1274;97842;-65
2022/09/24 04:25:32;;;;;;;22.10;9.90;;;;;;;5.86;73.30;99042.67;106153;1274;95275;-64
2022/09/24 04:28:07;;;;;;;19.40;9.30;;;;;;;5.79;73.29;99045.33;106061;1274;110812;-64
2022/09/24 04:30:39;;;;;;;21.90;10.00;;;;;;;5.79;73.50;99047.46;105919;1274;97889;-63
2022/09/24 04:33:11;;;;;;;18.90;9.60;;;;;;;5.85;73.70;99050.34;105983;1274;108394;-66
2022/09/24 04:35:40;;;;;;;19.40;8.70;;;;;;;5.90;73.77;99053.89;106239;1274;97889;-65
2022/09/24 04:38:08;;;;;;;20.10;9.10;;;;;;;5.94;73.79;99047.67;105950;1274;97901;-65
2022/09/24 04:40:40;;;;;;;20.00;9.40;;;;;;;5.99;73.83;99048.16;106116;1272;111639;-64
2022/09/24 04:43:08;;;;;;;20.70;9.30;;;;;;;6.03;73.88;99048.32;106146;1274;97842;-65
2022/09/24 04:45:37;;;;;;;19.00;9.10;;;;;;;6.07;73.89;99046.36;106181;1274;110516;-63
2022/09/24 04:48:05;;;;;;;17.80;8.70;;;;;;;6.11;73.80;99045.09;106122;1274;97895;-66
2022/09/24 04:50:33;;;;;;;21.50;8.90;;;;;;;6.15;73.73;99042.25;105955;1274;97867;-67
2022/09/24 04:53:01;;;;;;;19.70;9.20;;;;;;;6.18;73.90;99045.08;106017;1275;112412;-66
2022/09/24 04:55:30;;;;;;;17.50;8.40;;;;;;;6.20;73.74;99046.18;106066;1274;96692;-64
2022/09/24 04:57:58;;;;;;;18.40;8.00;;;;;;;6.23;73.79;99047.08;106006;1275;107878;-66
2022/09/24 05:00:26;;;;;;;17.80;8.30;;;;;;;6.28;73.79;99047.52;105983;1274;97880;-62
2022/09/24 05:02:59;;;;;;;16.70;7.70;;;;;;;6.34;74.16;99048.07;106018;1274;97898;-65
2022/09/24 05:05:27;;;;;;;17.10;8.10;;;;;;;6.38;74.08;99045.35;106181;1274;111879;-66
2022/09/24 05:07:57;;;;;;;17.90;7.90;;;;;;;6.44;74.00;99044.14;106174;1274;98581;-64
2022/09/24 05:10:26;;;;;;;18.50;7.60;;;;;;;6.52;74.18;99043.52;106136;1274;108912;-65
2022/09/24 05:12:54;;;;;;;19.10;8.60;;;;;;;6.60;74.12;99044.33;106228;1274;97901;-69
2022/09/24 05:15:22;;;;;;;16.60;7.30;;;;;;;6.66;74.13;99045.02;106127;1274;97985;-68
2022/09/24 05:17:51;;;;;;;16.40;7.00;;;;;;;6.73;74.35;99049.21;106086;1274;111882;-68
2022/09/24 05:20:19;;;;;;;15.60;7.80;;;;;;;6.81;74.34;99049.49;105983;1274;97885;-65
2022/09/24 05:22:48;;;;;;;15.60;6.80;;;;;;;6.90;74.34;99044.77;106079;1274;108378;-64
2022/09/24 05:25:21;;;;;;;14.00;6.90;;;;;;;6.95;74.13;99045.28;105996;1274;97882;-65
2022/09/24 05:27:53;;;;;;;13.40;6.70;;;;;;;7.04;74.39;99042.70;106012;1274;96335;-65
2022/09/24 05:30:25;;;;;;;15.80;7.00;;;;;;;7.09;74.41;99042.21;105997;1275;111383;-66
2022/09/24 05:32:52;;;;;;;15.30;6.80;;;;;;;7.14;74.45;99043.68;106062;1274;98012;-65
2022/09/24 05:35:23;;;;;;;15.00;6.40;;;;;;;7.20;74.04;99050.59;105932;1277;108681;-64
2022/09/24 05:37:54;;;;;;;14.60;6.30;;;;;;;7.25;74.29;99048.51;106039;1274;98062;-68
2022/09/24 05:43:09;;;;;;;15.20;6.60;;;;;;;7.39;74.43;99042.02;106096;1274;112123;-65
2022/09/24 05:45:37;;;;;;;13.40;5.90;;;;;;;7.44;74.38;99045.78;106134;1274;97955;-64
2022/09/24 05:48:05;;;;;;;12.90;5.90;;;;;;;7.49;74.46;99048.52;106082;1274;109264;-64
2022/09/24 05:50:34;;;;;;;14.50;6.20;;;;;;;7.54;74.44;99045.38;106058;1274;95290;-65
2022/09/24 05:53:04;;;;;;;14.30;6.60;;;;;;;7.58;74.34;99047.05;106089;1274;98056;-65
2022/09/24 05:55:33;;;;;;;13.20;5.60;;;;;;;7.63;74.43;99044.32;106125;1274;111987;-66
2022/09/24 05:58:12;;;;;;;12.60;5.70;;;;;;;7.66;74.29;99042.70;106147;1274;97951;-65
2022/09/24 06:00:40;;;;;;;13.30;5.90;;;;;;;7.70;74.41;99047.40;106098;1274;107746;-66
2022/09/24 06:03:15;;;;;;;10.90;5.40;;;;;;;7.75;74.31;99045.52;106072;1274;97963;-65
2022/09/24 06:05:50;;;;;;;12.10;5.10;;;;;;;7.79;74.44;99044.98;106138;1274;96184;-69
2022/09/24 06:08:19;;;;;;;10.50;5.30;;;;;;;7.84;74.34;99051.01;106075;1274;111397;-66
2022/09/24 06:10:48;;;;;;;11.00;5.30;;;;;;;7.88;74.45;99052.86;105989;1274;96534;-64
2022/09/24 06:13:20;;;;;;;12.00;5.70;;;;;;;7.90;74.25;99050.95;105970;1274;108312;-65
2022/09/24 06:15:49;;;;;;;11.60;5.60;;;;;;;7.91;74.21;99050.73;106006;1274;95337;-65
2022/09/24 06:18:19;;;;;;;13.80;5.50;;;;;;;7.90;74.27;99049.91;106102;1274;97761;-65
2022/09/24 06:20:47;;;;;;;11.80;5.80;;;;;;;7.88;74.41;99051.77;106039;1274;112204;-65
2022/09/24 06:23:15;;;;;;;12.10;5.10;;;;;;;7.88;74.33;99052.88;106078;1274;97892;-66
2022/09/24 06:25:50;;;;;;;11.90;5.80;;;;;;;7.88;74.27;99052.66;106064;1276;107407;-66
2022/09/24 06:28:17;;;;;;;12.70;5.60;;;;;;;7.89;74.23;99051.24;106012;1274;97943;-64
2022/09/24 06:30:46;;;;;;;10.00;5.20;;;;;;;7.89;74.18;99049.27;105977;1274;97844;-64
2022/09/24 06:33:13;;;;;;;11.50;5.80;;;;;;;7.92;74.37;99053.87;106020;1274;110909;-66
2022/09/24 06:35:43;;;;;;;11.30;5.30;;;;;;;7.93;74.28;99054.15;106112;1274;97877;-63
2022/09/24 06:38:15;;;;;;;12.40;5.20;;;;;;;7.94;74.23;99053.90;106120;1274;107908;-65
2022/09/24 06:40:49;;;;;;;12.10;5.30;;;;;;;7.96;74.26;99055.89;106123;1274;96433;-66
2022/09/24 06:43:17;;;;;;;;;;;;;;;8.02;74.34;99059.95;106234;1274;95272;-64
2022/09/24 06:45:46;;;;;;;11.00;5.00;;;;;;;8.07;74.42;99061.96;106249;1274;112046;-67
2022/09/24 06:48:13;;;;;;;12.60;5.40;;;;;;;8.15;74.38;99062.68;106126;1274;97967;-65
2022/09/24 06:50:44;;;;;;;11.00;4.90;;;;;;;8.25;74.39;99060.67;106205;1274;108359;-65
2022/09/24 06:53:14;;;;;;;10.50;5.20;;;;;;;8.33;74.44;99062.11;106107;1274;95274;-67
2022/09/24 06:55:44;;;;;;;8.50;4.60;;;;;;;8.41;74.43;99060.90;106034;1274;98166;-66
2022/09/24 06:58:19;;;;;;;11.80;4.90;;;;;;;8.46;74.50;99061.23;105998;1274;112310;-67
2022/09/24 07:00:52;;;;;;;11.50;5.00;;;;;;;8.54;74.49;99061.36;106180;1274;97924;-67
2022/09/24 07:03:21;;;;;;;13.20;5.60;;;;;;;8.61;74.39;99066.84;106120;1274;107814;-66
2022/09/24 07:05:49;;;;;;;14.60;6.10;;;;;;;8.66;74.32;99068.30;106108;1273;95294;-65
2022/09/24 07:08:18;;;;;;;11.10;5.20;;;;;;;8.73;74.31;99067.91;106174;1274;98956;-70
2022/09/24 07:10:51;;;;;;;8.60;4.50;;;;;;;8.81;74.37;99068.05;106139;1274;111926;-67
2022/09/24 07:13:21;;;;;;;11.30;5.50;;;;;;;8.91;74.42;99072.36;106208;1274;97868;-66
2022/09/24 07:15:51;;;;;;;12.20;5.00;;;;;;;9.01;74.50;99075.98;106175;1274;108342;-66
2022/09/24 07:18:20;;;;;;;12.40;5.10;;;;;;;9.09;74.45;99075.65;106168;1274;98059;-67
2022/09/24 07:20:54;;;;;;;13.20;5.70;;;;;;;9.13;74.44;99076.27;106182;1274;97878;-66
2022/09/24 07:23:23;;;;;;;13.00;5.30;;;;;;;9.18;74.40;99078.40;106123;1274;111471;-67
2022/09/24 07:25:56;;;;;;;11.20;5.00;;;;;;;9.23;74.38;99078.02;106077;1274;96350;-65
2022/09/24 07:28:25;;;;;;;12.50;5.00;;;;;;;9.30;74.41;99078.69;106119;1274;108296;-66
2022/09/24 07:30:59;;;;;;;10.70;5.20;;;;;;;9.36;74.33;99076.68;105948;1274;97962;-65
2022/09/24 07:33:31;;;;;;;11.10;4.80;;;;;;;9.43;74.38;99078.48;106012;1274;97877;-65
2022/09/24 07:36:07;;;;;;;13.90;5.00;;;;;;;9.53;74.38;99079.27;106012;1274;110997;-63
2022/09/24 07:38:35;;;;;;;13.50;5.10;;;;;;;9.61;74.31;99079.72;106110;1274;95262;-65
2022/09/24 07:41:06;;;;;;;10.10;4.80;;;;;;;9.69;74.30;99084.52;106079;1274;108479;-67
2022/09/24 07:43:37;;;;;;;10.70;4.90;;;;;;;9.77;74.32;99085.58;106071;1274;97983;-65
2022/09/24 07:46:07;;;;;;;9.50;4.50;;;;;;;9.86;74.44;99086.02;106122;1274;97869;-66
2022/09/24 07:48:36;;;;;;;11.90;4.80;;;;;;;9.96;74.37;99087.98;106210;1274;112676;-66
2022/09/24 07:51:10;;;;;;;9.70;4.60;;;;;;;10.05;74.29;99091.60;106012;1275;95447;-66
2022/09/24 07:53:38;;;;;;;12.00;5.00;;;;;;;10.13;74.27;99088.23;106131;1274;108431;-66
2022/09/24 07:56:07;;;;;;;12.80;5.50;;;;;;;10.24;74.25;99088.52;106052;1274;97950;-67
2022/09/24 07:58:35;;;;;;;15.20;5.30;;;;;;;10.34;74.13;99086.96;106211;1274;97960;-63
2022/09/24 08:01:05;;;;;;;11.20;5.20;;;;;;;10.40;74.11;99088.65;106167;1274;111689;-66
2022/09/24 08:03:35;;;;;;;13.70;5.90;;;;;;;10.49;74.27;99093.16;106200;1274;98547;-66
2022/09/24 08:06:06;;;;;;;11.00;5.00;;;;;;;10.58;74.27;99092.34;106102;1274;107733;-66
2022/09/24 08:08:37;;;;;;;8.90;4.60;;;;;;;10.69;74.31;99097.55;106072;1274;97875;-66
2022/09/24 08:11:09;;;;;;;11.20;4.50;;;;;;;10.84;74.19;99093.85;106172;1273;97939;-67
2022/09/24 08:13:37;;;;;;;10.90;4.50;;;;;;;10.99;74.07;99092.70;106100;1274;111405;-67
2022/09/24 08:16:06;;;;;;;9.60;4.60;;;;;;;11.12;74.08;99088.91;106129;1274;97835;-66
2022/09/24 08:18:36;;;;;;;12.60;5.20;;;;;;;11.27;74.08;99089.93;106067;1274;107458;-66
2022/09/24 08:21:10;;;;;;;8.80;4.40;;;;;;;11.40;73.94;99090.73;106097;1274;95668;-67
2022/09/24 08:23:42;;;;;;;9.60;4.90;;;;;;;11.56;74.07;99090.80;106156;1274;97882;-65
2022/09/24 08:26:12;;;;;;;12.80;5.30;;;;;;;11.70;73.91;99091.13;106121;1274;111304;-64
2022/09/24 08:28:42;;;;;;;10.70;4.70;;;;;;;12.15;73.37;99084.73;106141;1274;97988;-66
2022/09/24 08:31:12;;;;;;;11.60;5.20;;;;;;;12.72;73.19;99088.52;106124;1274;107838;-65
2022/09/24 08:33:40;;;;;;;7.90;4.20;;;;;;;13.18;72.85;99087.42;106104;1274;97987;-65
2022/09/24 08:36:11;;;;;;;10.10;4.40;;;;;;;13.60;72.82;99084.56;106162;1274;97862;-65
2022/09/24 08:38:39;;;;;;;9.20;4.30;;;;;;;14.04;72.96;99086.45;106114;1274;112109;-65
2022/09/24 08:41:32;;;;;;;8.90;4.30;;;;;;;14.48;72.80;99083.00;106212;1274;95279;-66
2022/09/24 08:47:21;;;;;;;11.20;4.60;;;;;;;14.90;72.69;99084.12;106123;1274;107649;-67
2022/09/24 08:47:22;;;;;;;9.90;3.80;;;;;;;15.35;72.58;99081.09;106133;1274;95245;-69
2022/09/24 08:50:02;;;;;;;8.40;4.00;;;;;;;15.73;72.31;99082.22;106179;1274;95304;-69
2022/09/24 08:52:42;;;;;;;8.10;4.10;;;;;;;16.05;72.36;99078.61;106140;1274;111533;-67
2022/09/24 08:55:28;;;;;;;8.70;4.10;;;;;;;16.34;72.22;99073.00;106100;1274;95275;-65
2022/09/24 08:58:16;;;;;;;9.40;4.40;;;;;;;16.44;72.39;99070.19;106060;1274;108010;-65
2022/09/24 09:01:05;;;;;;;8.90;3.70;;;;;;;16.51;72.33;99070.22;106091;1274;96015;-68
2022/09/24 09:03:58;;;;;;;5.90;3.60;;;;;;;16.66;72.56;99068.95;106096;1274;97877;-68
2022/09/24 09:06:53;;;;;;;9.00;3.90;;;;;;;16.86;72.45;99068.85;105872;1274;112170;-66
2022/09/24 09:09:33;;;;;;;7.90;3.70;;;;;;;17.03;71.89;99064.45;106128;1274;95293;-66
2022/09/24 09:12:11;;;;;;;7.70;3.90;;;;;;;17.24;72.24;99063.06;106073;1274;108291;-67
2022/09/24 09:14:51;;;;;;;6.20;3.50;;;;;;;17.37;71.84;99058.94;106021;1274;95264;-67
2022/09/24 09:17:32;;;;;;;8.70;3.70;;;;;;;17.48;71.70;99058.61;106106;1274;97848;-65
2022/09/24 09:20:06;;;;;;;9.60;4.00;;;;;;;17.59;71.63;99055.09;106134;1274;111400;-67
2022/09/24 09:22:45;;;;;;;7.60;3.70;;;;;;;17.71;71.42;99056.46;106055;1274;95263;-67
2022/09/24 09:25:27;;;;;;;9.90;3.90;;;;;;;17.80;71.30;99060.64;106166;1274;107430;-67
2022/09/24 09:28:14;;;;;;;10.00;3.90;;;;;;;17.90;70.94;99059.46;106121;1273;97969;-66
2022/09/24 09:30:51;;;;;;;7.10;3.70;;;;;;;18.06;70.78;99058.77;106084;1274;97877;-67
2022/09/24 09:33:31;;;;;;;7.80;3.70;;;;;;;18.20;70.49;99059.47;106049;1274;112089;-67
2022/09/24 09:36:20;;;;;;;5.50;3.40;;;;;;;18.32;70.27;99053.39;106051;1274;97901;-67
2022/09/24 09:39:01;;;;;;;8.10;3.80;;;;;;;18.38;70.32;99049.48;106007;1272;108381;-65
2022/09/24 09:41:39;;;;;;;6.60;3.60;;;;;;;18.29;69.97;99048.52;106047;1274;97966;-66
2022/09/24 09:44:25;;;;;;;8.90;4.10;;;;;;;18.25;70.17;99046.94;106111;1274;96297;-67
2022/09/24 09:47:03;;;;;;;7.90;3.90;;;;;;;18.15;69.68;99049.80;106055;1274;111893;-67
2022/09/24 09:49:37;;;;;;;5.80;3.60;;;;;;;18.10;69.71;99051.20;106014;1274;97892;-66
2022/09/24 09:52:21;;;;;;;8.00;4.10;;;;;;;18.05;69.68;99047.94;106033;1274;107824;-66
2022/09/24 09:54:51;;;;;;;8.10;3.90;;;;;;;17.91;69.51;99050.58;106101;1274;95604;-67
2022/09/24 09:57:24;;;;;;;7.90;3.70;;;;;;;17.86;69.35;99048.10;106147;1274;97891;-66
2022/09/24 09:59:54;;;;;;;9.80;4.00;;;;;;;17.79;69.37;99046.61;106166;1274;110294;-67
2022/09/24 10:02:32;;;;;;;7.50;3.80;;;;;;;17.76;69.17;99046.92;106091;1274;96281;-66
2022/09/24 10:05:04;;;;;;;10.30;4.40;;;;;;;17.75;68.85;99041.98;105974;1274;107801;-67
2022/09/24 10:07:44;;;;;;;7.80;4.20;;;;;;;17.78;68.89;99040.66;105992;1274;98039;-65
2022/09/24 10:10:23;;;;;;;7.80;3.70;;;;;;;17.82;68.80;99045.39;106041;1274;98141;-69
2022/09/24 10:13:13;;;;;;;7.50;3.60;;;;;;;17.84;68.50;99041.46;106105;1274;111520;-68
2022/09/24 10:15:52;;;;;;;8.20;4.10;;;;;;;17.81;68.42;99039.23;106151;1274;97905;-66
2022/09/24 10:18:43;;;;;;;7.10;3.90;;;;;;;17.81;68.24;99039.09;106064;1274;107618;-70
2022/09/24 10:21:25;;;;;;;6.20;3.60;;;;;;;17.73;68.08;99038.27;105990;1274;97944;-71
2022/09/24 10:24:04;;;;;;;4.50;2.80;;;;;;;17.64;67.58;99030.98;106036;1274;97863;-69
2022/09/24 10:26:42;;;;;;;6.70;3.70;;;;;;;17.64;67.57;99030.19;106113;1274;111679;-72
2022/09/24 10:32:24;;;;;;;6.90;4.20;;;;;;;17.46;66.84;99028.68;105927;1274;108705;-66
2022/09/24 10:35:18;;;;;;;8.30;3.70;;;;;;;17.35;66.63;99026.75;106066;1274;97885;-64
2022/09/24 10:37:56;;;;;;;5.60;3.30;;;;;;;17.25;66.37;99024.52;105993;1274;97874;-66
2022/09/24 10:40:38;;;;;;;9.30;4.00;;;;;;;17.21;66.37;99022.23;106068;1274;111460;-66
2022/09/24 10:43:14;;;;;;;7.50;3.70;;;;;;;17.22;66.15;99024.44;105993;1274;96360;-66
2022/09/24 10:46:12;;;;;;;15.70;6.70;;;;;;;17.21;66.04;99019.34;105994;1274;107379;-65
2022/09/24 10:48:58;;;;;;;8.90;4.10;;;;;;;17.19;65.96;99019.90;106154;1274;97986;-70
2022/09/24 10:52:03;;;;;;;7.70;3.60;;;;;;;17.07;66.13;99012.83;106030;1274;97967;-67
2022/09/24 10:54:47;;;;;;;6.50;3.50;;;;;;;16.77;65.38;99013.49;105996;1274;112149;-64
2022/09/24 10:57:53;;;;;;;7.00;3.50;;;;;;;16.71;65.37;99008.10;106069;1274;96582;-66
2022/09/24 11:00:38;;;;;;;6.10;3.50;;;;;;;16.77;65.21;99011.65;105959;1274;108466;-66
2022/09/24 11:03:46;;;;;;;5.50;3.00;;;;;;;16.75;65.17;99011.66;106068;1274;96691;-66
2022/09/24 11:06:23;;;;;;;6.30;3.00;;;;;;;16.74;64.84;99010.04;105978;1274;97112;-66
2022/09/24 11:09:14;;;;;;;7.00;3.30;;;;;;;16.72;64.85;99010.70;106044;1274;113473;-65
2022/09/24 11:11:54;;;;;;;9.40;3.60;;;;;;;16.70;64.40;99008.84;105983;1274;95988;-65
2022/09/24 11:14:42;;;;;;;9.00;3.90;;;;;;;16.71;64.67;99002.93;106112;1274;108379;-64
2022/09/24 11:17:19;;;;;;;8.60;3.80;;;;;;;16.71;64.56;99003.09;106123;1274;98545;-64
2022/09/24 11:20:09;;;;;;;5.80;3.50;;;;;;;16.67;64.40;98998.33;106239;1274;98651;-65
2022/09/24 11:23:07;;;;;;;6.10;3.70;;;;;;;16.61;63.95;98994.69;106049;1274;112000;-65
2022/09/24 11:25:48;;;;;;;6.80;3.70;;;;;;;16.56;63.71;98995.47;107383;1274;97801;-65
2022/09/24 11:28:43;;;;;;;7.20;3.60;;;;;;;16.54;63.78;98994.77;107884;1274;107732;-64
2022/09/24 11:31:28;;;;;;;9.60;4.10;;;;;;;16.54;63.56;98994.57;107719;1273;95779;-65
2022/09/24 11:34:18;;;;;;;8.40;3.90;;;;;;;16.58;63.78;98993.10;105942;1274;96444;-66
2022/09/24 11:37:03;;;;;;;12.90;4.40;;;;;;;16.58;63.46;98989.17;106001;1274;111385;-65
2022/09/24 11:40:00;;;;;;;10.60;4.30;;;;;;;16.59;63.45;98992.55;106079;1274;97970;-69
2022/09/24 11:42:34;;;;;;;9.90;4.30;;;;;;;16.55;63.05;98991.63;106046;1274;107741;-64
2022/09/24 11:45:33;;;;;;;6.60;3.60;;;;;;;16.49;63.04;98986.88;105947;1274;95191;-65
2022/09/24 11:48:09;;;;;;;8.00;3.60;;;;;;;16.48;63.16;98982.33;106122;1274;97749;-64
2022/09/24 11:50:55;;;;;;;5.70;3.40;;;;;;;16.48;62.84;98983.69;106155;1274;111383;-64
2022/09/24 11:53:38;;;;;;;7.60;3.90;;;;;;;16.53;62.77;98978.77;106182;1274;96320;-66
2022/09/24 11:56:32;;;;;;;6.30;3.80;;;;;;;16.57;62.78;98978.39;106108;1274;107724;-65
2022/09/24 11:59:21;;;;;;;7.90;3.80;;;;;;;16.58;62.67;98979.20;106132;1274;97546;-67
2022/09/24 12:01:55;;;;;;;8.60;3.80;;;;;;;16.60;62.66;98975.39;106139;1274;97825;-67
2022/09/24 12:04:39;;;;;;;9.20;3.60;;;;;;;16.56;62.28;98980.29;106144;1274;111058;-65
2022/09/24 12:07:30;;;;;;;8.70;4.60;;;;;;;16.47;62.34;98973.94;106185;1274;97934;-64
2022/09/24 12:10:19;;;;;;;9.30;4.30;;;;;;;16.37;62.07;98969.96;106167;1274;109190;-65
2022/09/24 12:13:11;;;;;;;6.70;3.60;;;;;;;16.35;61.98;98966.36;106135;1274;97894;-64